x

La Perouse Bank (46206) Wave Buoy

1:00pm - Sat 24th Jun 2017 All times are PDT. -7 hours from GMT.

  • Sig Wave height 3.0ft
  • Peak Period 17s
  • Wind
    2mph, 2mph gusts
  • Sea Temp 59°f
  • 空気 Temp 63°f
  • Sea Pressure 1020.5mb
  • La Perouse Bank
  • La Perouse Bank

More Historic Weather Station data

Upgrade to MSW Pro to gain access to the past 30 days of data for over 8000 Wavebouys and Weather Stations around the globe.

Join Pro

Comparision Forecast

View Surf forecast
   
Sat 06/24 1:00pm 3ft 17s 2 2 mph 1020.5mb 59f 63f
12:00pm 3ft 16s 2 4 mph 1020.9mb 58f 62f
11:00am 3ft 7s  -  0 mph 1021mb 58f 65f
10:00am 3.5ft 17s  -  0 mph 1021.3mb 57f 62f
9:00am 3.5ft 7s 2 4 mph 1021.4mb 57f 59f
8:00am 3.5ft 6s 4 7 mph 1021.4mb 57f 58f
7:00am 3.5ft 17s 2 2 mph 1021.4mb 57f 59f
6:00am 3.5ft 17s  -  4 mph 1021mb 56f 60f
5:00am 3.5ft 17s 4 7 mph 1020.6mb 56f 58f
4:00am 3.5ft 17s 4 7 mph 1020.5mb 56f 57f
3:00am 3.5ft 17s 2 4 mph 1020.6mb 56f 57f
2:00am 3.5ft 6s 4 4 mph 1020.6mb 56f 57f
1:00am 3.5ft 6s 4 7 mph 1020.9mb 56f 57f
12:00am 3.5ft 6s 9 11 mph 1021mb 56f 58f
Fri 06/23 11:00pm 4ft 6s 9 11 mph 1021.3mb 56f 58f
10:00pm 3.5ft 17s 11 13 mph 1021.7mb 56f 58f
9:00pm 3.5ft 6s 11 13 mph 1021.9mb 56f 58f
8:00pm 3.5ft 7s 11 13 mph 1022.1mb 56f 59f
7:00pm 3.5ft 18s 13 13 mph 1022.6mb 57f 58f
6:00pm 3.5ft 7s 13 13 mph 1022.9mb 58f 59f
5:00pm 3.5ft 7s 9 9 mph 1023.4mb 58f 59f
4:00pm 3.5ft 7s 9 11 mph 1023.9mb 58f 59f
3:00pm 3.5ft 18s 11 13 mph 1024.3mb 58f 58f
2:00pm 4ft 18s 9 11 mph 1024.1mb 58f 58f
1:00pm 4ft 6s 7 7 mph 1024.4mb 58f 58f
12:00pm 4.5ft 6s 2 4 mph 1024.3mb 57f 58f
11:00am 4.5ft 7s 7 7 mph 1024.4mb 57f 57f
10:00am 4.5ft 7s  -  2 mph 1024.5mb 56f 56f
9:00am 4.5ft 7s 2 4 mph 1024.8mb 55f 56f
8:00am 4.5ft 6s 2 4 mph 1024.7mb 55f 56f
7:00am 5ft 7s 4 7 mph 1024.5mb 55f 55f
6:00am 5ft 7s 2 4 mph 1024.3mb 55f 55f
5:00am 5.5ft 8s 4 4 mph 1024mb 55f 55f
4:00am 5ft 7s 7 9 mph 1024mb 54f 55f
3:00am 6ft 8s 13 13 mph 1024.1mb 55f 55f
2:00am 6ft 7s 11 13 mph 1024.2mb 54f 55f
1:00am 5.5ft 6s 13 18 mph 1024.1mb 55f 55f
12:00am 5ft 8s 16 18 mph 1024.5mb 55f 55f
Thu 06/22 11:00pm 5.5ft 6s 18 20 mph 1024.6mb 55f 55f
10:00pm 5.5ft 9s 18 20 mph 1025.1mb 55f 55f
9:00pm 5.5ft 9s 20 25 mph 1025mb 55f 55f
8:00pm 5.5ft 8s 18 22 mph 1025.4mb 55f 56f
7:00pm 5ft 7s 18 20 mph 1025.9mb 55f 56f
6:00pm 5ft 10s 13 18 mph 1026.1mb 56f 56f
5:00pm 5ft 9s 16 18 mph 1026.6mb 56f 56f
4:00pm 5ft 8s 16 20 mph 1026.7mb 56f 56f
3:00pm 5ft 8s 13 18 mph 1027.1mb 56f 56f
2:00pm 5ft 9s 11 13 mph 1027.1mb 56f 55f
1:00pm 5.5ft 6s 11 13 mph 1027.3mb 55f 55f
12:00pm 6ft 9s 11 13 mph 1027.6mb 55f 55f
11:00am 6ft 9s 2 4 mph 1027.5mb 55f 55f
10:00am 6.5ft 9s 2 4 mph 1027.1mb 54f 55f
9:00am 7ft 8s 7 9 mph 1027.3mb 54f 55f
8:00am 7ft 8s 11 13 mph 1026.8mb 54f 55f
7:00am 8ft 10s 11 13 mph 1026.6mb 54f 55f
6:00am 8ft 9s 13 18 mph 1026.5mb 54f 55f
5:00am 8ft 7s 16 18 mph 1025.9mb 54f 55f
4:00am 8ft 9s 18 20 mph 1026mb 54f 55f
3:00am 8.5ft 10s 18 20 mph 1026.2mb 54f 55f
2:00am 8.5ft 7s 18 22 mph 1026mb 54f 55f
1:00am 9ft 7s 20 25 mph 1025.7mb 54f 55f
12:00am 9ft 7s 22 29 mph 1025.9mb 54f 55f
Wed 06/21 11:00pm 9ft 7s 25 29 mph 1025.7mb 54f 55f
10:00pm 9ft 7s 22
mph
1025.7mb 54f 55f
9:00pm 9ft 9s 25 29 mph 1025.8mb 54f 55f
8:00pm 8.5ft 7s 22 27 mph 1026mb 54f 55f
7:00pm 8.5ft 11s 25 29 mph 1026.2mb 55f 55f
6:00pm 8ft 10s 25 31 mph 1026.8mb 55f 55f
5:00pm 8ft 11s 25 29 mph 1026.8mb 54f 55f
4:00pm 8ft 10s 22 27 mph 1027.1mb 54f 55f
3:00pm 7.5ft 9s 22 27 mph 1027.2mb 54f 55f
2:00pm 7ft 10s 22 27 mph 1027.2mb 54f 55f
1:00pm 7ft 6s 22 29 mph 1027.2mb 54f 55f
12:00pm 7ft 6s 22 27 mph 1027.2mb 54f 54f
11:00am 6.5ft 9s 20 25 mph 1027.1mb 54f 54f
10:00am 6.5ft 6s 22 29 mph 1027.2mb 54f 55f
9:00am 6.5ft 6s 22 27 mph 1027mb 54f 54f
8:00am 6ft 6s 22 27 mph 1026.6mb 54f 54f
7:00am 6ft 6s 22 27 mph 1026.1mb 54f 54f
6:00am 6ft 6s 20 25 mph 1026.1mb 54f 54f
5:00am 6ft 6s 20 25 mph 1025.9mb 54f 54f
4:00am 6.5ft 6s 22 27 mph 1025.5mb 54f 54f
3:00am 6ft 6s 22 27 mph 1025.9mb 54f 54f
2:00am 6ft 6s 20 25 mph 1025.5mb 54f 54f
1:00am 6.5ft 6s 20 25 mph 1025.4mb 54f 54f
12:00am 7ft 6s 22 27 mph 1025mb 54f 54f
Tue 06/20 11:00pm 7ft 6s 22 25 mph 1025mb 54f 54f
10:00pm  -   -  22
mph
1024.8mb - 54f